sensor_id;sensor_type;location;lat;lon;timestamp;P1;durP1;ratioP1;P2;durP2;ratioP2
55672;SDS011;41554;45.366;20.400;2022-09-16T00:01:19;2.90;;;1.58;;
55672;SDS011;41554;45.366;20.400;2022-09-16T00:03:46;5.50;;;1.05;;
55672;SDS011;41554;45.366;20.400;2022-09-16T00:06:16;4.18;;;2.53;;
55672;SDS011;41554;45.366;20.400;2022-09-16T00:08:47;5.03;;;2.10;;
55672;SDS011;41554;45.366;20.400;2022-09-16T00:11:14;2.00;;;1.77;;
55672;SDS011;41554;45.366;20.400;2022-09-16T00:13:40;2.42;;;0.82;;
55672;SDS011;41554;45.366;20.400;2022-09-16T00:16:07;4.95;;;1.67;;
55672;SDS011;41554;45.366;20.400;2022-09-16T00:18:33;2.60;;;1.90;;
55672;SDS011;41554;45.366;20.400;2022-09-16T00:20:59;1.67;;;1.23;;
55672;SDS011;41554;45.366;20.400;2022-09-16T00:23:26;3.25;;;1.02;;
55672;SDS011;41554;45.366;20.400;2022-09-16T00:25:53;9.95;;;2.65;;
55672;SDS011;41554;45.366;20.400;2022-09-16T00:28:20;5.80;;;1.63;;
55672;SDS011;41554;45.366;20.400;2022-09-16T00:30:47;2.85;;;1.70;;
55672;SDS011;41554;45.366;20.400;2022-09-16T00:33:13;5.03;;;2.00;;
55672;SDS011;41554;45.366;20.400;2022-09-16T00:35:39;1.50;;;1.30;;
55672;SDS011;41554;45.366;20.400;2022-09-16T00:38:08;2.35;;;1.45;;
55672;SDS011;41554;45.366;20.400;2022-09-16T00:40:34;3.38;;;1.65;;
55672;SDS011;41554;45.366;20.400;2022-09-16T00:43:01;6.40;;;2.78;;
55672;SDS011;41554;45.366;20.400;2022-09-16T00:45:32;4.80;;;1.90;;
55672;SDS011;41554;45.366;20.400;2022-09-16T00:48:02;2.97;;;2.53;;
55672;SDS011;41554;45.366;20.400;2022-09-16T00:50:34;4.93;;;1.92;;
55672;SDS011;41554;45.366;20.400;2022-09-16T00:53:03;5.25;;;1.67;;
55672;SDS011;41554;45.366;20.400;2022-09-16T00:55:31;5.35;;;1.67;;
55672;SDS011;41554;45.366;20.400;2022-09-16T00:58:01;0.95;;;0.85;;
55672;SDS011;41554;45.366;20.400;2022-09-16T01:00:27;5.70;;;2.13;;
55672;SDS011;41554;45.366;20.400;2022-09-16T01:02:53;3.53;;;1.83;;
55672;SDS011;41554;45.366;20.400;2022-09-16T01:05:20;2.47;;;1.67;;
55672;SDS011;41554;45.366;20.400;2022-09-16T01:07:50;4.35;;;1.70;;
55672;SDS011;41554;45.366;20.400;2022-09-16T01:10:17;3.97;;;1.65;;
55672;SDS011;41554;45.366;20.400;2022-09-16T01:12:45;4.28;;;1.75;;
55672;SDS011;41554;45.366;20.400;2022-09-16T01:15:12;1.85;;;1.27;;
55672;SDS011;41554;45.366;20.400;2022-09-16T01:38:24;2.53;;;1.30;;
55672;SDS011;41554;45.366;20.400;2022-09-16T01:45:52;14.05;;;1.92;;
55672;SDS011;41554;45.366;20.400;2022-09-16T01:48:39;3.60;;;1.77;;
55672;SDS011;41554;45.366;20.400;2022-09-16T01:53:36;2.15;;;1.63;;
55672;SDS011;41554;45.366;20.400;2022-09-16T01:56:19;1.77;;;1.55;;
55672;SDS011;41554;45.366;20.400;2022-09-16T01:58:53;2.42;;;1.60;;
55672;SDS011;41554;45.366;20.400;2022-09-16T02:01:28;3.35;;;2.30;;
55672;SDS011;41554;45.366;20.400;2022-09-16T02:04:01;3.67;;;2.03;;
55672;SDS011;41554;45.366;20.400;2022-09-16T02:06:28;5.55;;;2.00;;
55672;SDS011;41554;45.366;20.400;2022-09-16T02:09:03;7.28;;;2.42;;
55672;SDS011;41554;45.366;20.400;2022-09-16T02:11:30;4.22;;;2.38;;
55672;SDS011;41554;45.366;20.400;2022-09-16T02:13:58;8.00;;;2.15;;
55672;SDS011;41554;45.366;20.400;2022-09-16T02:18:54;6.63;;;2.67;;
55672;SDS011;41554;45.366;20.400;2022-09-16T02:21:22;1.08;;;0.98;;
55672;SDS011;41554;45.366;20.400;2022-09-16T02:23:50;3.03;;;1.77;;
55672;SDS011;41554;45.366;20.400;2022-09-16T02:26:20;3.22;;;2.22;;
55672;SDS011;41554;45.366;20.400;2022-09-16T02:28:47;4.63;;;2.05;;
55672;SDS011;41554;45.366;20.400;2022-09-16T02:31:15;3.55;;;2.25;;
55672;SDS011;41554;45.366;20.400;2022-09-16T02:33:44;7.03;;;2.35;;
55672;SDS011;41554;45.366;20.400;2022-09-16T02:36:13;8.13;;;2.22;;
55672;SDS011;41554;45.366;20.400;2022-09-16T02:38:41;2.65;;;1.67;;
55672;SDS011;41554;45.366;20.400;2022-09-16T02:41:09;2.65;;;1.98;;
55672;SDS011;41554;45.366;20.400;2022-09-16T02:43:39;2.95;;;2.20;;
55672;SDS011;41554;45.366;20.400;2022-09-16T02:46:15;2.30;;;1.50;;
55672;SDS011;41554;45.366;20.400;2022-09-16T02:53:58;2.78;;;1.58;;
55672;SDS011;41554;45.366;20.400;2022-09-16T02:56:30;1.55;;;1.38;;
55672;SDS011;41554;45.366;20.400;2022-09-16T02:58:57;2.72;;;2.05;;
55672;SDS011;41554;45.366;20.400;2022-09-16T03:01:23;5.57;;;2.47;;
55672;SDS011;41554;45.366;20.400;2022-09-16T03:03:50;3.90;;;1.88;;
55672;SDS011;41554;45.366;20.400;2022-09-16T03:06:20;4.40;;;2.00;;
55672;SDS011;41554;45.366;20.400;2022-09-16T03:08:47;2.80;;;1.75;;
55672;SDS011;41554;45.366;20.400;2022-09-16T03:22:01;6.20;;;2.22;;
55672;SDS011;41554;45.366;20.400;2022-09-16T03:29:37;6.13;;;2.47;;
55672;SDS011;41554;45.366;20.400;2022-09-16T03:32:14;3.28;;;1.77;;
55672;SDS011;41554;45.366;20.400;2022-09-16T03:35:07;3.03;;;2.13;;
55672;SDS011;41554;45.366;20.400;2022-09-16T03:37:42;2.42;;;1.65;;
55672;SDS011;41554;45.366;20.400;2022-09-16T03:40:14;6.93;;;2.17;;
55672;SDS011;41554;45.366;20.400;2022-09-16T03:42:43;1.98;;;1.73;;
55672;SDS011;41554;45.366;20.400;2022-09-16T03:45:13;2.92;;;1.75;;
55672;SDS011;41554;45.366;20.400;2022-09-16T03:47:41;4.88;;;2.58;;
55672;SDS011;41554;45.366;20.400;2022-09-16T03:50:08;2.55;;;2.05;;
55672;SDS011;41554;45.366;20.400;2022-09-16T03:52:34;5.95;;;2.50;;
55672;SDS011;41554;45.366;20.400;2022-09-16T03:55:00;4.40;;;2.15;;
55672;SDS011;41554;45.366;20.400;2022-09-16T03:57:26;1.67;;;1.58;;
55672;SDS011;41554;45.366;20.400;2022-09-16T03:59:52;2.95;;;2.28;;
55672;SDS011;41554;45.366;20.400;2022-09-16T04:02:18;3.78;;;2.75;;
55672;SDS011;41554;45.366;20.400;2022-09-16T04:04:43;5.97;;;2.40;;
55672;SDS011;41554;45.366;20.400;2022-09-16T04:07:10;11.85;;;3.78;;
55672;SDS011;41554;45.366;20.400;2022-09-16T04:09:35;3.70;;;2.42;;
55672;SDS011;41554;45.366;20.400;2022-09-16T04:12:01;3.90;;;2.45;;
55672;SDS011;41554;45.366;20.400;2022-09-16T04:14:27;4.53;;;2.88;;
55672;SDS011;41554;45.366;20.400;2022-09-16T04:16:54;4.25;;;2.45;;
55672;SDS011;41554;45.366;20.400;2022-09-16T04:19:19;8.68;;;3.28;;
55672;SDS011;41554;45.366;20.400;2022-09-16T04:21:45;2.75;;;2.42;;
55672;SDS011;41554;45.366;20.400;2022-09-16T04:24:11;7.55;;;3.00;;
55672;SDS011;41554;45.366;20.400;2022-09-16T04:26:37;7.30;;;3.17;;
55672;SDS011;41554;45.366;20.400;2022-09-16T04:29:04;5.53;;;3.28;;
55672;SDS011;41554;45.366;20.400;2022-09-16T04:31:29;4.13;;;2.60;;
55672;SDS011;41554;45.366;20.400;2022-09-16T04:33:55;2.35;;;1.73;;
55672;SDS011;41554;45.366;20.400;2022-09-16T04:36:21;4.18;;;2.50;;
55672;SDS011;41554;45.366;20.400;2022-09-16T04:38:47;1.42;;;1.33;;
55672;SDS011;41554;45.366;20.400;2022-09-16T04:41:14;5.90;;;2.58;;
55672;SDS011;41554;45.366;20.400;2022-09-16T04:43:42;3.13;;;2.53;;
55672;SDS011;41554;45.366;20.400;2022-09-16T04:46:08;2.75;;;2.10;;
55672;SDS011;41554;45.366;20.400;2022-09-16T04:48:34;5.18;;;2.08;;
55672;SDS011;41554;45.366;20.400;2022-09-16T04:51:04;3.03;;;2.55;;
55672;SDS011;41554;45.366;20.400;2022-09-16T04:53:33;6.15;;;2.40;;
55672;SDS011;41554;45.366;20.400;2022-09-16T04:56:03;3.38;;;2.05;;
55672;SDS011;41554;45.366;20.400;2022-09-16T04:58:30;6.75;;;3.05;;
55672;SDS011;41554;45.366;20.400;2022-09-16T05:01:01;6.05;;;2.72;;
55672;SDS011;41554;45.366;20.400;2022-09-16T05:03:28;5.82;;;3.30;;
55672;SDS011;41554;45.366;20.400;2022-09-16T05:05:54;4.90;;;3.60;;
55672;SDS011;41554;45.366;20.400;2022-09-16T05:08:29;2.17;;;1.95;;
55672;SDS011;41554;45.366;20.400;2022-09-16T05:10:54;8.07;;;3.20;;
55672;SDS011;41554;45.366;20.400;2022-09-16T05:13:21;2.95;;;2.17;;
55672;SDS011;41554;45.366;20.400;2022-09-16T05:15:47;7.75;;;3.75;;
55672;SDS011;41554;45.366;20.400;2022-09-16T05:18:13;4.65;;;2.60;;
55672;SDS011;41554;45.366;20.400;2022-09-16T05:20:39;2.58;;;2.17;;
55672;SDS011;41554;45.366;20.400;2022-09-16T05:23:04;7.90;;;2.90;;
55672;SDS011;41554;45.366;20.400;2022-09-16T05:25:32;4.32;;;3.17;;
55672;SDS011;41554;45.366;20.400;2022-09-16T05:27:59;7.53;;;3.50;;
55672;SDS011;41554;45.366;20.400;2022-09-16T05:30:25;5.00;;;3.33;;
55672;SDS011;41554;45.366;20.400;2022-09-16T05:32:54;6.30;;;3.75;;
55672;SDS011;41554;45.366;20.400;2022-09-16T05:35:20;8.90;;;5.82;;
55672;SDS011;41554;45.366;20.400;2022-09-16T05:37:45;4.68;;;3.53;;
55672;SDS011;41554;45.366;20.400;2022-09-16T05:40:13;5.57;;;3.58;;
55672;SDS011;41554;45.366;20.400;2022-09-16T05:42:39;4.90;;;2.92;;
55672;SDS011;41554;45.366;20.400;2022-09-16T05:45:04;3.72;;;2.88;;
55672;SDS011;41554;45.366;20.400;2022-09-16T05:47:31;5.25;;;2.15;;
55672;SDS011;41554;45.366;20.400;2022-09-16T05:49:56;3.20;;;2.47;;
55672;SDS011;41554;45.366;20.400;2022-09-16T05:52:22;4.03;;;2.92;;
55672;SDS011;41554;45.366;20.400;2022-09-16T05:54:49;4.07;;;2.40;;
55672;SDS011;41554;45.366;20.400;2022-09-16T05:57:15;2.38;;;1.63;;
55672;SDS011;41554;45.366;20.400;2022-09-16T05:59:40;1.95;;;1.77;;
55672;SDS011;41554;45.366;20.400;2022-09-16T06:02:07;6.55;;;3.03;;
55672;SDS011;41554;45.366;20.400;2022-09-16T06:04:37;3.22;;;2.50;;
55672;SDS011;41554;45.366;20.400;2022-09-16T06:07:06;1.77;;;1.42;;
55672;SDS011;41554;45.366;20.400;2022-09-16T06:09:32;2.25;;;1.55;;
55672;SDS011;41554;45.366;20.400;2022-09-16T06:11:58;6.60;;;3.17;;
55672;SDS011;41554;45.366;20.400;2022-09-16T06:14:23;2.53;;;1.50;;
55672;SDS011;41554;45.366;20.400;2022-09-16T06:16:49;2.80;;;1.83;;
55672;SDS011;41554;45.366;20.400;2022-09-16T06:19:15;1.90;;;1.55;;
55672;SDS011;41554;45.366;20.400;2022-09-16T06:21:42;4.13;;;1.90;;
55672;SDS011;41554;45.366;20.400;2022-09-16T06:24:09;6.15;;;1.73;;
55672;SDS011;41554;45.366;20.400;2022-09-16T06:26:37;3.05;;;1.98;;
55672;SDS011;41554;45.366;20.400;2022-09-16T06:29:04;3.45;;;1.30;;
55672;SDS011;41554;45.366;20.400;2022-09-16T06:31:30;1.42;;;1.33;;
55672;SDS011;41554;45.366;20.400;2022-09-16T06:33:57;2.60;;;2.15;;
55672;SDS011;41554;45.366;20.400;2022-09-16T06:36:24;2.67;;;2.47;;
55672;SDS011;41554;45.366;20.400;2022-09-16T06:38:53;2.45;;;1.95;;
55672;SDS011;41554;45.366;20.400;2022-09-16T06:41:19;3.30;;;1.85;;
55672;SDS011;41554;45.366;20.400;2022-09-16T06:43:46;5.05;;;2.45;;
55672;SDS011;41554;45.366;20.400;2022-09-16T06:46:16;6.55;;;2.78;;
55672;SDS011;41554;45.366;20.400;2022-09-16T06:48:47;2.92;;;2.28;;
55672;SDS011;41554;45.366;20.400;2022-09-16T06:51:16;4.05;;;2.50;;
55672;SDS011;41554;45.366;20.400;2022-09-16T06:53:47;3.83;;;2.40;;
55672;SDS011;41554;45.366;20.400;2022-09-16T06:56:14;3.83;;;1.88;;
55672;SDS011;41554;45.366;20.400;2022-09-16T06:58:42;2.97;;;2.03;;
55672;SDS011;41554;45.366;20.400;2022-09-16T07:06:08;11.27;;;3.45;;
55672;SDS011;41554;45.366;20.400;2022-09-16T07:08:36;6.57;;;3.72;;
55672;SDS011;41554;45.366;20.400;2022-09-16T07:11:13;2.65;;;2.30;;
55672;SDS011;41554;45.366;20.400;2022-09-16T07:13:44;5.57;;;3.15;;
55672;SDS011;41554;45.366;20.400;2022-09-16T07:16:17;3.53;;;2.53;;
55672;SDS011;41554;45.366;20.400;2022-09-16T07:18:51;6.90;;;3.38;;
55672;SDS011;41554;45.366;20.400;2022-09-16T07:21:18;2.78;;;1.73;;
55672;SDS011;41554;45.366;20.400;2022-09-16T07:23:45;2.50;;;1.95;;
55672;SDS011;41554;45.366;20.400;2022-09-16T07:28:38;3.00;;;1.77;;
55672;SDS011;41554;45.366;20.400;2022-09-16T07:31:09;2.22;;;2.03;;
55672;SDS011;41554;45.366;20.400;2022-09-16T07:33:38;3.35;;;1.95;;
55672;SDS011;41554;45.366;20.400;2022-09-16T07:36:05;2.22;;;1.52;;
55672;SDS011;41554;45.366;20.400;2022-09-16T07:38:33;2.03;;;1.83;;
55672;SDS011;41554;45.366;20.400;2022-09-16T07:43:35;4.85;;;2.55;;
55672;SDS011;41554;45.366;20.400;2022-09-16T07:46:01;2.28;;;2.00;;
55672;SDS011;41554;45.366;20.400;2022-09-16T07:48:28;7.05;;;3.58;;
55672;SDS011;41554;45.366;20.400;2022-09-16T07:51:06;5.82;;;2.70;;
55672;SDS011;41554;45.366;20.400;2022-09-16T07:53:33;8.70;;;2.83;;
55672;SDS011;41554;45.366;20.400;2022-09-16T07:56:34;8.75;;;2.75;;
55672;SDS011;41554;45.366;20.400;2022-09-16T07:58:53;2.85;;;2.00;;
55672;SDS011;41554;45.366;20.400;2022-09-16T08:01:19;3.95;;;2.35;;
55672;SDS011;41554;45.366;20.400;2022-09-16T08:03:46;8.57;;;2.97;;
55672;SDS011;41554;45.366;20.400;2022-09-16T08:06:12;3.47;;;1.75;;
55672;SDS011;41554;45.366;20.400;2022-09-16T08:08:45;3.47;;;2.53;;
55672;SDS011;41554;45.366;20.400;2022-09-16T08:11:12;2.35;;;1.65;;
55672;SDS011;41554;45.366;20.400;2022-09-16T08:13:39;3.70;;;2.55;;
55672;SDS011;41554;45.366;20.400;2022-09-16T08:16:06;5.35;;;3.10;;
55672;SDS011;41554;45.366;20.400;2022-09-16T08:18:34;3.38;;;2.50;;
55672;SDS011;41554;45.366;20.400;2022-09-16T08:21:12;4.35;;;2.95;;
55672;SDS011;41554;45.366;20.400;2022-09-16T08:23:40;7.88;;;2.55;;
55672;SDS011;41554;45.366;20.400;2022-09-16T08:26:06;7.22;;;2.75;;
55672;SDS011;41554;45.366;20.400;2022-09-16T08:28:34;5.90;;;2.45;;
55672;SDS011;41554;45.366;20.400;2022-09-16T08:31:01;4.00;;;2.85;;
55672;SDS011;41554;45.366;20.400;2022-09-16T08:33:27;4.95;;;3.42;;
55672;SDS011;41554;45.366;20.400;2022-09-16T08:38:55;4.80;;;4.00;;
55672;SDS011;41554;45.366;20.400;2022-09-16T08:46:44;6.78;;;4.07;;
55672;SDS011;41554;45.366;20.400;2022-09-16T08:51:50;6.53;;;3.65;;
55672;SDS011;41554;45.366;20.400;2022-09-16T08:54:23;5.28;;;3.78;;
55672;SDS011;41554;45.366;20.400;2022-09-16T08:56:52;5.07;;;3.47;;
55672;SDS011;41554;45.366;20.400;2022-09-16T08:59:20;3.95;;;3.17;;
55672;SDS011;41554;45.366;20.400;2022-09-16T09:01:51;7.77;;;4.40;;
55672;SDS011;41554;45.366;20.400;2022-09-16T09:04:20;9.95;;;4.28;;
55672;SDS011;41554;45.366;20.400;2022-09-16T09:06:58;5.20;;;3.80;;
55672;SDS011;41554;45.366;20.400;2022-09-16T09:24:33;5.47;;;3.80;;
55672;SDS011;41554;45.366;20.400;2022-09-16T09:27:08;5.65;;;3.95;;
55672;SDS011;41554;45.366;20.400;2022-09-16T09:40:14;10.60;;;4.82;;
55672;SDS011;41554;45.366;20.400;2022-09-16T09:45:21;8.90;;;4.82;;
55672;SDS011;41554;45.366;20.400;2022-09-16T09:47:50;5.70;;;4.18;;
55672;SDS011;41554;45.366;20.400;2022-09-16T09:50:19;7.35;;;5.50;;
55672;SDS011;41554;45.366;20.400;2022-09-16T09:55:26;8.68;;;5.47;;
55672;SDS011;41554;45.366;20.400;2022-09-16T10:00:39;5.25;;;4.55;;
55672;SDS011;41554;45.366;20.400;2022-09-16T10:03:09;6.38;;;5.18;;
55672;SDS011;41554;45.366;20.400;2022-09-16T10:05:36;6.10;;;5.03;;
55672;SDS011;41554;45.366;20.400;2022-09-16T10:08:08;7.18;;;5.15;;
55672;SDS011;41554;45.366;20.400;2022-09-16T10:10:39;6.43;;;5.10;;
55672;SDS011;41554;45.366;20.400;2022-09-16T10:13:11;8.23;;;5.35;;
55672;SDS011;41554;45.366;20.400;2022-09-16T10:15:38;8.60;;;5.53;;
55672;SDS011;41554;45.366;20.400;2022-09-16T10:18:12;9.50;;;5.65;;
55672;SDS011;41554;45.366;20.400;2022-09-16T10:20:41;6.45;;;4.40;;
55672;SDS011;41554;45.366;20.400;2022-09-16T10:25:34;5.78;;;4.72;;
55672;SDS011;41554;45.366;20.400;2022-09-16T10:28:04;16.05;;;5.90;;
55672;SDS011;41554;45.366;20.400;2022-09-16T10:30:31;6.63;;;4.82;;
55672;SDS011;41554;45.366;20.400;2022-09-16T10:33:12;7.38;;;4.18;;
55672;SDS011;41554;45.366;20.400;2022-09-16T10:35:39;5.53;;;4.88;;
55672;SDS011;41554;45.366;20.400;2022-09-16T10:38:18;9.82;;;4.05;;
55672;SDS011;41554;45.366;20.400;2022-09-16T10:40:49;3.53;;;3.22;;
55672;SDS011;41554;45.366;20.400;2022-09-16T10:43:16;4.93;;;3.30;;
55672;SDS011;41554;45.366;20.400;2022-09-16T10:45:46;4.90;;;3.38;;
55672;SDS011;41554;45.366;20.400;2022-09-16T10:48:14;7.22;;;2.97;;
55672;SDS011;41554;45.366;20.400;2022-09-16T10:50:51;7.18;;;4.30;;
55672;SDS011;41554;45.366;20.400;2022-09-16T10:55:56;8.32;;;5.90;;
55672;SDS011;41554;45.366;20.400;2022-09-16T10:58:22;9.02;;;5.78;;
55672;SDS011;41554;45.366;20.400;2022-09-16T11:11:20;10.55;;;7.70;;
55672;SDS011;41554;45.366;20.400;2022-09-16T11:13:58;14.15;;;7.25;;
55672;SDS011;41554;45.366;20.400;2022-09-16T11:24:10;11.90;;;7.50;;
55672;SDS011;41554;45.366;20.400;2022-09-16T11:27:18;7.82;;;5.80;;
55672;SDS011;41554;45.366;20.400;2022-09-16T11:34:58;12.82;;;7.32;;
55672;SDS011;41554;45.366;20.400;2022-09-16T11:39:59;15.25;;;6.05;;
55672;SDS011;41554;45.366;20.400;2022-09-16T11:45:16;7.07;;;4.80;;
55672;SDS011;41554;45.366;20.400;2022-09-16T11:47:48;4.80;;;3.95;;
55672;SDS011;41554;45.366;20.400;2022-09-16T11:50:21;5.05;;;3.60;;
55672;SDS011;41554;45.366;20.400;2022-09-16T11:57:53;8.70;;;3.88;;
55672;SDS011;41554;45.366;20.400;2022-09-16T12:00:20;10.27;;;3.92;;
55672;SDS011;41554;45.366;20.400;2022-09-16T12:03:00;7.00;;;3.65;;
55672;SDS011;41554;45.366;20.400;2022-09-16T12:05:41;5.07;;;3.15;;
55672;SDS011;41554;45.366;20.400;2022-09-16T12:08:15;5.55;;;3.63;;
55672;SDS011;41554;45.366;20.400;2022-09-16T12:10:57;13.85;;;4.50;;
55672;SDS011;41554;45.366;20.400;2022-09-16T12:13:27;5.53;;;3.85;;
55672;SDS011;41554;45.366;20.400;2022-09-16T12:16:01;4.88;;;3.13;;
55672;SDS011;41554;45.366;20.400;2022-09-16T12:18:30;5.60;;;3.85;;
55672;SDS011;41554;45.366;20.400;2022-09-16T12:21:08;5.18;;;3.90;;
55672;SDS011;41554;45.366;20.400;2022-09-16T12:23:38;4.65;;;3.47;;
55672;SDS011;41554;45.366;20.400;2022-09-16T12:28:45;6.55;;;5.43;;
55672;SDS011;41554;45.366;20.400;2022-09-16T12:31:17;4.10;;;3.38;;
55672;SDS011;41554;45.366;20.400;2022-09-16T12:33:49;5.13;;;4.03;;
55672;SDS011;41554;45.366;20.400;2022-09-16T12:36:19;5.18;;;4.25;;
55672;SDS011;41554;45.366;20.400;2022-09-16T12:38:45;8.85;;;5.40;;
55672;SDS011;41554;45.366;20.400;2022-09-16T12:59:41;6.95;;;5.07;;
55672;SDS011;41554;45.366;20.400;2022-09-16T13:02:13;10.75;;;6.35;;
55672;SDS011;41554;45.366;20.400;2022-09-16T13:04:42;8.80;;;5.60;;
55672;SDS011;41554;45.366;20.400;2022-09-16T13:07:30;8.38;;;5.18;;
55672;SDS011;41554;45.366;20.400;2022-09-16T13:10:04;6.25;;;4.75;;
55672;SDS011;41554;45.366;20.400;2022-09-16T13:12:30;5.57;;;4.22;;
55672;SDS011;41554;45.366;20.400;2022-09-16T13:14:57;10.57;;;4.63;;
55672;SDS011;41554;45.366;20.400;2022-09-16T13:17:28;7.35;;;5.63;;
55672;SDS011;41554;45.366;20.400;2022-09-16T13:19:55;10.95;;;5.35;;
55672;SDS011;41554;45.366;20.400;2022-09-16T13:22:25;8.25;;;5.18;;
55672;SDS011;41554;45.366;20.400;2022-09-16T13:24:55;6.03;;;4.78;;
55672;SDS011;41554;45.366;20.400;2022-09-16T13:27:27;5.05;;;4.53;;
55672;SDS011;41554;45.366;20.400;2022-09-16T13:37:46;5.45;;;3.80;;
55672;SDS011;41554;45.366;20.400;2022-09-16T13:40:21;5.55;;;3.85;;
55672;SDS011;41554;45.366;20.400;2022-09-16T13:42:48;10.95;;;5.03;;
55672;SDS011;41554;45.366;20.400;2022-09-16T13:45:59;6.10;;;3.75;;
55672;SDS011;41554;45.366;20.400;2022-09-16T13:50:42;7.53;;;4.35;;
55672;SDS011;41554;45.366;20.400;2022-09-16T13:53:27;7.88;;;4.18;;
55672;SDS011;41554;45.366;20.400;2022-09-16T14:01:17;11.63;;;7.30;;
55672;SDS011;41554;45.366;20.400;2022-09-16T14:03:57;9.57;;;5.25;;
55672;SDS011;41554;45.366;20.400;2022-09-16T14:13:59;7.00;;;5.45;;
55672;SDS011;41554;45.366;20.400;2022-09-16T14:16:27;6.45;;;5.00;;
55672;SDS011;41554;45.366;20.400;2022-09-16T14:18:55;6.15;;;4.93;;
55672;SDS011;41554;45.366;20.400;2022-09-16T14:21:24;8.20;;;5.82;;
55672;SDS011;41554;45.366;20.400;2022-09-16T14:23:50;5.93;;;4.55;;
55672;SDS011;41554;45.366;20.400;2022-09-16T14:26:21;11.68;;;5.80;;
55672;SDS011;41554;45.366;20.400;2022-09-16T14:31:23;15.20;;;4.75;;
55672;SDS011;41554;45.366;20.400;2022-09-16T14:33:52;8.85;;;5.97;;
55672;SDS011;41554;45.366;20.400;2022-09-16T14:36:37;10.57;;;7.50;;
55672;SDS011;41554;45.366;20.400;2022-09-16T14:44:07;9.45;;;7.38;;
55672;SDS011;41554;45.366;20.400;2022-09-16T14:46:41;8.00;;;6.47;;
55672;SDS011;41554;45.366;20.400;2022-09-16T14:49:11;11.55;;;8.05;;
55672;SDS011;41554;45.366;20.400;2022-09-16T14:51:38;9.02;;;7.10;;
55672;SDS011;41554;45.366;20.400;2022-09-16T14:54:14;14.70;;;6.93;;
55672;SDS011;41554;45.366;20.400;2022-09-16T14:56:40;9.90;;;7.70;;
55672;SDS011;41554;45.366;20.400;2022-09-16T14:59:09;10.57;;;6.03;;
55672;SDS011;41554;45.366;20.400;2022-09-16T15:01:36;9.70;;;7.10;;
55672;SDS011;41554;45.366;20.400;2022-09-16T15:04:03;8.18;;;6.18;;
55672;SDS011;41554;45.366;20.400;2022-09-16T15:06:34;8.93;;;7.15;;
55672;SDS011;41554;45.366;20.400;2022-09-16T15:09:05;9.68;;;6.68;;
55672;SDS011;41554;45.366;20.400;2022-09-16T15:11:43;10.30;;;6.70;;
55672;SDS011;41554;45.366;20.400;2022-09-16T15:14:10;9.32;;;6.38;;
55672;SDS011;41554;45.366;20.400;2022-09-16T15:16:44;12.75;;;7.97;;
55672;SDS011;41554;45.366;20.400;2022-09-16T15:19:29;7.57;;;5.85;;
55672;SDS011;41554;45.366;20.400;2022-09-16T15:21:56;10.05;;;5.78;;
55672;SDS011;41554;45.366;20.400;2022-09-16T15:24:23;11.30;;;6.88;;
55672;SDS011;41554;45.366;20.400;2022-09-16T15:26:52;15.27;;;6.70;;
55672;SDS011;41554;45.366;20.400;2022-09-16T15:31:45;10.80;;;7.85;;
55672;SDS011;41554;45.366;20.400;2022-09-16T15:36:56;12.38;;;9.23;;
55672;SDS011;41554;45.366;20.400;2022-09-16T15:39:29;10.73;;;8.00;;
55672;SDS011;41554;45.366;20.400;2022-09-16T15:42:04;14.38;;;10.02;;
55672;SDS011;41554;45.366;20.400;2022-09-16T15:44:34;10.80;;;7.80;;
55672;SDS011;41554;45.366;20.400;2022-09-16T15:47:00;16.48;;;9.38;;
55672;SDS011;41554;45.366;20.400;2022-09-16T15:49:27;9.90;;;6.97;;
55672;SDS011;41554;45.366;20.400;2022-09-16T15:51:54;15.48;;;7.90;;
55672;SDS011;41554;45.366;20.400;2022-09-16T15:54:25;11.00;;;7.97;;
55672;SDS011;41554;45.366;20.400;2022-09-16T16:01:53;15.23;;;8.18;;
55672;SDS011;41554;45.366;20.400;2022-09-16T16:04:28;10.93;;;8.93;;
55672;SDS011;41554;45.366;20.400;2022-09-16T16:07:01;11.82;;;8.68;;
55672;SDS011;41554;45.366;20.400;2022-09-16T16:11:55;12.13;;;7.30;;
55672;SDS011;41554;45.366;20.400;2022-09-16T16:14:21;13.60;;;7.05;;
55672;SDS011;41554;45.366;20.400;2022-09-16T16:16:51;14.65;;;7.35;;
55672;SDS011;41554;45.366;20.400;2022-09-16T16:19:17;8.52;;;6.47;;
55672;SDS011;41554;45.366;20.400;2022-09-16T16:21:44;15.40;;;7.40;;
55672;SDS011;41554;45.366;20.400;2022-09-16T16:24:16;9.60;;;7.43;;
55672;SDS011;41554;45.366;20.400;2022-09-16T16:26:42;11.15;;;8.27;;
55672;SDS011;41554;45.366;20.400;2022-09-16T16:29:08;11.70;;;7.90;;
55672;SDS011;41554;45.366;20.400;2022-09-16T16:31:34;14.18;;;7.95;;
55672;SDS011;41554;45.366;20.400;2022-09-16T16:34:03;12.55;;;8.68;;
55672;SDS011;41554;45.366;20.400;2022-09-16T16:36:29;15.25;;;8.48;;
55672;SDS011;41554;45.366;20.400;2022-09-16T16:38:55;9.15;;;6.57;;
55672;SDS011;41554;45.366;20.400;2022-09-16T16:41:23;12.35;;;7.78;;
55672;SDS011;41554;45.366;20.400;2022-09-16T16:46:18;9.25;;;7.15;;
55672;SDS011;41554;45.366;20.400;2022-09-16T16:48:47;11.38;;;8.52;;
55672;SDS011;41554;45.366;20.400;2022-09-16T16:51:14;11.88;;;8.23;;
55672;SDS011;41554;45.366;20.400;2022-09-16T16:53:40;11.88;;;7.93;;
55672;SDS011;41554;45.366;20.400;2022-09-16T16:56:07;14.38;;;8.23;;
55672;SDS011;41554;45.366;20.400;2022-09-16T16:58:34;11.63;;;8.30;;
55672;SDS011;41554;45.366;20.400;2022-09-16T17:01:11;18.70;;;10.15;;
55672;SDS011;41554;45.366;20.400;2022-09-16T17:03:38;11.05;;;8.98;;
55672;SDS011;41554;45.366;20.400;2022-09-16T17:06:04;10.55;;;7.85;;
55672;SDS011;41554;45.366;20.400;2022-09-16T17:08:31;16.35;;;7.40;;
55672;SDS011;41554;45.366;20.400;2022-09-16T17:13:37;9.27;;;7.63;;
55672;SDS011;41554;45.366;20.400;2022-09-16T17:16:13;9.60;;;7.05;;
55672;SDS011;41554;45.366;20.400;2022-09-16T17:18:47;11.10;;;6.47;;
55672;SDS011;41554;45.366;20.400;2022-09-16T17:21:17;10.00;;;6.50;;
55672;SDS011;41554;45.366;20.400;2022-09-16T17:23:44;9.38;;;5.97;;
55672;SDS011;41554;45.366;20.400;2022-09-16T17:26:10;11.52;;;6.90;;
55672;SDS011;41554;45.366;20.400;2022-09-16T17:28:41;9.02;;;7.50;;
55672;SDS011;41554;45.366;20.400;2022-09-16T17:31:19;13.82;;;8.35;;
55672;SDS011;41554;45.366;20.400;2022-09-16T17:36:15;9.68;;;7.82;;
55672;SDS011;41554;45.366;20.400;2022-09-16T17:38:43;14.82;;;9.20;;
55672;SDS011;41554;45.366;20.400;2022-09-16T17:41:12;12.05;;;7.93;;
55672;SDS011;41554;45.366;20.400;2022-09-16T17:43:39;10.37;;;6.63;;
55672;SDS011;41554;45.366;20.400;2022-09-16T17:46:07;8.00;;;6.75;;
55672;SDS011;41554;45.366;20.400;2022-09-16T17:48:36;14.20;;;7.40;;
55672;SDS011;41554;45.366;20.400;2022-09-16T17:51:03;10.02;;;6.55;;
55672;SDS011;41554;45.366;20.400;2022-09-16T17:53:32;9.90;;;6.53;;
55672;SDS011;41554;45.366;20.400;2022-09-16T17:56:03;7.60;;;5.90;;
55672;SDS011;41554;45.366;20.400;2022-09-16T17:58:29;22.42;;;6.07;;
55672;SDS011;41554;45.366;20.400;2022-09-16T18:01:02;8.00;;;5.63;;
55672;SDS011;41554;45.366;20.400;2022-09-16T18:03:28;7.38;;;5.28;;
55672;SDS011;41554;45.366;20.400;2022-09-16T18:06:00;14.45;;;6.55;;
55672;SDS011;41554;45.366;20.400;2022-09-16T18:08:27;6.30;;;4.50;;
55672;SDS011;41554;45.366;20.400;2022-09-16T18:10:55;6.55;;;5.15;;
55672;SDS011;41554;45.366;20.400;2022-09-16T18:13:22;8.07;;;5.30;;
55672;SDS011;41554;45.366;20.400;2022-09-16T18:15:48;6.07;;;5.00;;
55672;SDS011;41554;45.366;20.400;2022-09-16T18:18:15;10.57;;;5.50;;
55672;SDS011;41554;45.366;20.400;2022-09-16T18:20:42;6.90;;;4.97;;